Chiricana — 3EKU3 — position and weather

sailwx.info

Track history (hours):
 
Tides and Currents Weather Stations Pressure Air Temp Water Temp Dewpoint Dewpoint Depression Visibility Wind Speed Wind Dir Waves Ship Positions

Chiricana

Last reported at 2014-Sep-18 03:33 UTC. Time now 2014-Sep-18 11:41 UTC.
Position N 36°37' W 000°48'.

Length 300 m; draft 13 m.

Type: Cargo ship. MMSI: 372829000.

Date/timePositionNaut miles runAvg speedWind from/ knotsBaromVisibWave heightAir tempDewpointWater temp
2014-Sep-18 03:33N 36°37' W 000°48'19219.0
2014-Sep-17 17:26N 37°06' E 003°09'1819.1
2014-Sep-17 16:28N 37°09' E 003°32'2119.4
2014-Sep-17 15:25N 37°12' E 003°57'6419.7
2014-Sep-17 12:09N 37°23' E 005°17'7620.3
2014-Sep-17 08:23N 37°34' E 006°52'6420.0
2014-Sep-17 05:11N 37°40' E 008°12'3419.5
2014-Sep-17 03:26N 37°42' E 008°55'2018.9
2014-Sep-17 02:22N 37°41' E 009°21'1619.1
2014-Sep-17 01:33N 37°41' E 009°41'1818.6
2014-Sep-17 00:33N 37°40' E 010°04'1918.9
2014-Sep-16 23:33N 37°38' E 010°28'11919.6
2014-Sep-16 17:29N 36°59' E 012°49'2219.8
2014-Sep-16 16:23N 36°50' E 013°14'3519.3
2014-Sep-16 14:33N 36°35' E 013°54'1919.2
2014-Sep-16 13:33N 36°27' E 014°15'2020.0
2014-Sep-16 12:33N 36°19' E 014°38'1118.8
2014-Sep-16 12:00N 36°12' E 014°48'1722.3 180 / 151014.0 1.029.0
2014-Sep-16 11:13N 36°11' E 015°09'79820.1
2014-Sep-14 19:33N 32°15' E 030°31'  
Track history (hours):
 
Tides and Currents Weather Stations Pressure Air Temp Water Temp Dewpoint Dewpoint Depression Visibility Wind Speed Wind Dir Waves Ship Positions

Chiricana

Last reported at 2014-Sep-18 03:33 UTC. Time now 2014-Sep-18 11:41 UTC.
Position N 36°37' W 000°48'.

Length 300 m; draft 13 m.

Type: Cargo ship. MMSI: 372829000.

Date/timePositionNaut miles runAvg speedWind from/ knotsBaromVisibWave heightAir tempDewpointWater temp
2014-Sep-18 03:33N 36°37' W 000°48'19219.0
2014-Sep-17 17:26N 37°06' E 003°09'1819.1
2014-Sep-17 16:28N 37°09' E 003°32'2119.4
2014-Sep-17 15:25N 37°12' E 003°57'6419.7
2014-Sep-17 12:09N 37°23' E 005°17'7620.3
2014-Sep-17 08:23N 37°34' E 006°52'6420.0
2014-Sep-17 05:11N 37°40' E 008°12'3419.5
2014-Sep-17 03:26N 37°42' E 008°55'2018.9
2014-Sep-17 02:22N 37°41' E 009°21'1619.1
2014-Sep-17 01:33N 37°41' E 009°41'1818.6
2014-Sep-17 00:33N 37°40' E 010°04'1918.9
2014-Sep-16 23:33N 37°38' E 010°28'11919.6
2014-Sep-16 17:29N 36°59' E 012°49'2219.8
2014-Sep-16 16:23N 36°50' E 013°14'3519.3
2014-Sep-16 14:33N 36°35' E 013°54'1919.2
2014-Sep-16 13:33N 36°27' E 014°15'2020.0
2014-Sep-16 12:33N 36°19' E 014°38'1118.8
2014-Sep-16 12:00N 36°12' E 014°48'1722.3 180 / 151014.0 1.029.0
2014-Sep-16 11:13N 36°11' E 015°09'79820.1
2014-Sep-14 19:33N 32°15' E 030°31'  

Dump ship's entire track history